sensor_id;sensor_type;location;lat;lon;timestamp;pressure;altitude;pressure_sealevel;temperature;humidity
16120;BME280;12670;53.502;10.252;2023-03-20T00:02:36;101297.84;;;10.62;100.00
16120;BME280;12670;53.502;10.252;2023-03-20T00:05:39;101307.22;;;10.72;100.00
16120;BME280;12670;53.502;10.252;2023-03-20T00:08:44;101306.97;;;10.53;100.00
16120;BME280;12670;53.502;10.252;2023-03-20T00:11:48;101301.59;;;10.56;100.00
16120;BME280;12670;53.502;10.252;2023-03-20T00:14:51;101298.63;;;10.37;100.00
16120;BME280;12670;53.502;10.252;2023-03-20T00:17:54;101302.44;;;10.57;100.00
16120;BME280;12670;53.502;10.252;2023-03-20T00:20:57;101297.75;;;10.65;100.00
16120;BME280;12670;53.502;10.252;2023-03-20T00:24:00;101299.72;;;10.58;100.00
16120;BME280;12670;53.502;10.252;2023-03-20T00:27:03;101292.81;;;10.26;100.00
16120;BME280;12670;53.502;10.252;2023-03-20T00:30:17;101297.94;;;10.32;100.00
16120;BME280;12670;53.502;10.252;2023-03-20T00:33:20;101294.41;;;10.32;100.00
16120;BME280;12670;53.502;10.252;2023-03-20T00:36:23;101294.91;;;10.43;100.00
16120;BME280;12670;53.502;10.252;2023-03-20T00:39:27;101290.31;;;10.50;100.00
16120;BME280;12670;53.502;10.252;2023-03-20T00:42:30;101287.38;;;10.57;100.00
16120;BME280;12670;53.502;10.252;2023-03-20T00:45:33;101287.28;;;10.60;100.00
16120;BME280;12670;53.502;10.252;2023-03-20T00:48:37;101275.72;;;10.63;100.00
16120;BME280;12670;53.502;10.252;2023-03-20T00:51:40;101274.19;;;10.56;100.00
16120;BME280;12670;53.502;10.252;2023-03-20T00:54:46;101274.06;;;10.59;100.00
16120;BME280;12670;53.502;10.252;2023-03-20T00:57:50;101274.78;;;10.64;100.00
16120;BME280;12670;53.502;10.252;2023-03-20T01:00:53;101277.72;;;10.55;100.00
16120;BME280;12670;53.502;10.252;2023-03-20T01:03:57;101273.13;;;10.60;100.00
16120;BME280;12670;53.502;10.252;2023-03-20T01:06:59;101271.31;;;10.62;100.00
16120;BME280;12670;53.502;10.252;2023-03-20T01:10:04;101272.94;;;10.39;100.00
16120;BME280;12670;53.502;10.252;2023-03-20T01:13:20;101285.22;;;10.42;100.00
16120;BME280;12670;53.502;10.252;2023-03-20T01:16:25;101284.50;;;10.37;100.00
16120;BME280;12670;53.502;10.252;2023-03-20T01:19:28;101279.50;;;10.28;100.00
16120;BME280;12670;53.502;10.252;2023-03-20T01:22:31;101275.59;;;10.39;100.00
16120;BME280;12670;53.502;10.252;2023-03-20T01:25:35;101261.88;;;10.53;100.00
16120;BME280;12670;53.502;10.252;2023-03-20T01:28:38;101278.50;;;10.58;100.00
16120;BME280;12670;53.502;10.252;2023-03-20T01:31:41;101281.06;;;10.61;100.00
16120;BME280;12670;53.502;10.252;2023-03-20T01:34:43;101280.69;;;10.46;100.00
16120;BME280;12670;53.502;10.252;2023-03-20T01:37:48;101280.50;;;10.52;100.00
16120;BME280;12670;53.502;10.252;2023-03-20T01:40:55;101283.44;;;10.43;100.00
16120;BME280;12670;53.502;10.252;2023-03-20T01:44:00;101280.38;;;10.55;100.00
16120;BME280;12670;53.502;10.252;2023-03-20T01:47:14;101286.19;;;10.66;100.00
16120;BME280;12670;53.502;10.252;2023-03-20T01:50:27;101287.38;;;10.57;100.00
16120;BME280;12670;53.502;10.252;2023-03-20T01:53:30;101282.88;;;10.33;100.00
16120;BME280;12670;53.502;10.252;2023-03-20T01:56:38;101284.88;;;10.53;100.00
16120;BME280;12670;53.502;10.252;2023-03-20T01:59:44;101284.69;;;10.59;100.00
16120;BME280;12670;53.502;10.252;2023-03-20T02:02:48;101275.25;;;10.50;100.00
16120;BME280;12670;53.502;10.252;2023-03-20T02:05:52;101282.09;;;10.29;100.00
16120;BME280;12670;53.502;10.252;2023-03-20T02:08:55;101284.16;;;10.48;100.00
16120;BME280;12670;53.502;10.252;2023-03-20T02:11:59;101278.59;;;10.55;100.00
16120;BME280;12670;53.502;10.252;2023-03-20T02:15:02;101285.13;;;10.45;100.00
16120;BME280;12670;53.502;10.252;2023-03-20T02:18:05;101285.00;;;10.50;100.00
16120;BME280;12670;53.502;10.252;2023-03-20T02:21:27;101281.88;;;10.63;100.00
16120;BME280;12670;53.502;10.252;2023-03-20T02:28:51;101277.78;;;9.97;100.00
16120;BME280;12670;53.502;10.252;2023-03-20T02:32:25;101279.56;;;9.67;100.00
16120;BME280;12670;53.502;10.252;2023-03-20T02:39:29;101274.97;;;9.74;100.00
16120;BME280;12670;53.502;10.252;2023-03-20T02:42:41;101275.19;;;9.66;100.00
16120;BME280;12670;53.502;10.252;2023-03-20T02:45:52;101268.44;;;9.85;100.00
16120;BME280;12670;53.502;10.252;2023-03-20T02:48:59;101268.06;;;9.68;100.00
16120;BME280;12670;53.502;10.252;2023-03-20T02:52:09;101268.44;;;9.56;100.00
16120;BME280;12670;53.502;10.252;2023-03-20T02:55:19;101264.13;;;9.81;100.00
16120;BME280;12670;53.502;10.252;2023-03-20T02:58:27;101262.59;;;9.74;100.00
16120;BME280;12670;53.502;10.252;2023-03-20T03:01:35;101257.66;;;9.90;100.00
16120;BME280;12670;53.502;10.252;2023-03-20T03:04:46;101266.34;;;9.95;100.00
16120;BME280;12670;53.502;10.252;2023-03-20T03:07:55;101260.28;;;9.92;100.00
16120;BME280;12670;53.502;10.252;2023-03-20T03:11:04;101256.19;;;9.81;100.00
16120;BME280;12670;53.502;10.252;2023-03-20T03:14:14;101256.06;;;9.86;100.00
16120;BME280;12670;53.502;10.252;2023-03-20T03:17:22;101265.25;;;9.74;100.00
16120;BME280;12670;53.502;10.252;2023-03-20T03:20:28;101259.78;;;9.79;100.00
16120;BME280;12670;53.502;10.252;2023-03-20T03:23:34;101265.25;;;9.73;100.00
16120;BME280;12670;53.502;10.252;2023-03-20T03:26:42;101269.81;;;9.69;100.00
16120;BME280;12670;53.502;10.252;2023-03-20T03:29:49;101262.34;;;9.52;100.00
16120;BME280;12670;53.502;10.252;2023-03-20T03:33:07;101272.94;;;9.52;100.00
16120;BME280;12670;53.502;10.252;2023-03-20T03:36:16;101264.41;;;9.72;100.00
16120;BME280;12670;53.502;10.252;2023-03-20T03:39:26;101268.44;;;9.56;100.00
16120;BME280;12670;53.502;10.252;2023-03-20T03:42:36;101263.31;;;9.50;100.00
16120;BME280;12670;53.502;10.252;2023-03-20T03:45:45;101260.63;;;9.51;100.00
16120;BME280;12670;53.502;10.252;2023-03-20T03:48:54;101252.44;;;9.59;100.00
16120;BME280;12670;53.502;10.252;2023-03-20T03:52:01;101248.69;;;9.66;100.00
16120;BME280;12670;53.502;10.252;2023-03-20T03:55:08;101247.91;;;9.63;100.00
16120;BME280;12670;53.502;10.252;2023-03-20T03:58:17;101250.19;;;9.75;100.00
16120;BME280;12670;53.502;10.252;2023-03-20T04:01:21;101239.72;;;9.70;100.00
16120;BME280;12670;53.502;10.252;2023-03-20T04:04:26;101250.34;;;9.70;100.00
16120;BME280;12670;53.502;10.252;2023-03-20T04:07:29;101248.41;;;9.75;100.00
16120;BME280;12670;53.502;10.252;2023-03-20T04:10:32;101245.63;;;9.80;100.00
16120;BME280;12670;53.502;10.252;2023-03-20T04:13:36;101245.63;;;9.80;100.00
16120;BME280;12670;53.502;10.252;2023-03-20T04:16:38;101250.16;;;9.76;100.00
16120;BME280;12670;53.502;10.252;2023-03-20T04:19:41;101255.63;;;9.41;100.00
16120;BME280;12670;53.502;10.252;2023-03-20T04:22:44;101268.06;;;9.37;100.00
16120;BME280;12670;53.502;10.252;2023-03-20T04:25:46;101263.31;;;9.50;100.00
16120;BME280;12670;53.502;10.252;2023-03-20T04:28:50;101254.28;;;9.55;100.00
16120;BME280;12670;53.502;10.252;2023-03-20T04:31:53;101252.19;;;9.68;100.00
16120;BME280;12670;53.502;10.252;2023-03-20T04:34:57;101250.56;;;9.63;100.00
16120;BME280;12670;53.502;10.252;2023-03-20T04:37:59;101258.03;;;9.78;100.00
16120;BME280;12670;53.502;10.252;2023-03-20T04:41:03;101243.66;;;9.57;100.00
16120;BME280;12670;53.502;10.252;2023-03-20T04:44:07;101253.47;;;9.53;100.00
16120;BME280;12670;53.502;10.252;2023-03-20T04:47:10;101250.69;;;9.58;100.00
16120;BME280;12670;53.502;10.252;2023-03-20T04:50:13;101241.09;;;9.54;100.00
16120;BME280;12670;53.502;10.252;2023-03-20T04:53:16;101241.75;;;9.32;100.00
16120;BME280;12670;53.502;10.252;2023-03-20T04:56:19;101235.75;;;9.55;100.00
16120;BME280;12670;53.502;10.252;2023-03-20T04:59:23;101243.25;;;9.71;100.00
16120;BME280;12670;53.502;10.252;2023-03-20T05:02:25;101248.22;;;9.52;100.00
16120;BME280;12670;53.502;10.252;2023-03-20T05:05:28;101248.00;;;9.59;100.00
16120;BME280;12670;53.502;10.252;2023-03-20T05:08:31;101256.78;;;9.30;100.00
16120;BME280;12670;53.502;10.252;2023-03-20T05:11:33;101242.44;;;9.38;100.00
16120;BME280;12670;53.502;10.252;2023-03-20T05:14:37;101247.75;;;9.38;100.00
16120;BME280;12670;53.502;10.252;2023-03-20T05:17:40;101245.25;;;9.33;100.00
16120;BME280;12670;53.502;10.252;2023-03-20T05:20:42;101251.97;;;9.45;100.00
16120;BME280;12670;53.502;10.252;2023-03-20T05:23:45;101251.78;;;9.21;100.00
16120;BME280;12670;53.502;10.252;2023-03-20T05:26:48;101244.38;;;9.32;100.00
16120;BME280;12670;53.502;10.252;2023-03-20T05:29:52;101251.94;;;9.15;100.00
16120;BME280;12670;53.502;10.252;2023-03-20T05:32:55;101257.63;;;9.00;100.00
16120;BME280;12670;53.502;10.252;2023-03-20T05:35:58;101267.50;;;9.26;100.00
16120;BME280;12670;53.502;10.252;2023-03-20T05:39:01;101260.06;;;9.09;100.00
16120;BME280;12670;53.502;10.252;2023-03-20T05:42:03;101266.00;;;9.17;100.00
16120;BME280;12670;53.502;10.252;2023-03-20T05:45:08;101262.44;;;9.18;100.00
16120;BME280;12670;53.502;10.252;2023-03-20T05:48:11;101271.19;;;9.20;100.00
16120;BME280;12670;53.502;10.252;2023-03-20T05:51:14;101270.53;;;9.43;100.00
16120;BME280;12670;53.502;10.252;2023-03-20T05:54:17;101278.59;;;9.09;100.00
16120;BME280;12670;53.502;10.252;2023-03-20T05:57:19;101279.41;;;9.11;100.00
16120;BME280;12670;53.502;10.252;2023-03-20T06:00:24;101288.19;;;9.12;100.00
16120;BME280;12670;53.502;10.252;2023-03-20T06:03:27;101287.72;;;8.96;100.00
16120;BME280;12670;53.502;10.252;2023-03-20T06:06:30;101294.16;;;8.87;100.00
16120;BME280;12670;53.502;10.252;2023-03-20T06:09:32;101295.34;;;8.75;100.00
16120;BME280;12670;53.502;10.252;2023-03-20T06:12:35;101288.75;;;8.90;100.00
16120;BME280;12670;53.502;10.252;2023-03-20T06:15:39;101291.38;;;8.92;100.00
16120;BME280;12670;53.502;10.252;2023-03-20T06:18:42;101298.78;;;9.12;100.00
16120;BME280;12670;53.502;10.252;2023-03-20T06:21:44;101297.13;;;9.07;100.00
16120;BME280;12670;53.502;10.252;2023-03-20T06:24:47;101298.88;;;8.74;100.00
16120;BME280;12670;53.502;10.252;2023-03-20T06:27:50;101293.94;;;8.95;100.00
16120;BME280;12670;53.502;10.252;2023-03-20T06:30:54;101304.56;;;8.93;100.00
16120;BME280;12670;53.502;10.252;2023-03-20T06:33:57;101301.09;;;8.91;100.00
16120;BME280;12670;53.502;10.252;2023-03-20T06:37:00;101302.84;;;8.91;100.00
16120;BME280;12670;53.502;10.252;2023-03-20T06:40:03;101312.63;;;8.89;100.00
16120;BME280;12670;53.502;10.252;2023-03-20T06:43:06;101306.41;;;8.90;100.00
16120;BME280;12670;53.502;10.252;2023-03-20T06:46:10;101309.69;;;8.99;100.00
16120;BME280;12670;53.502;10.252;2023-03-20T06:49:13;101303.28;;;9.08;100.00
16120;BME280;12670;53.502;10.252;2023-03-20T06:52:17;101302.91;;;8.89;100.00
16120;BME280;12670;53.502;10.252;2023-03-20T06:55:20;101310.03;;;8.87;100.00
16120;BME280;12670;53.502;10.252;2023-03-20T06:58:22;101305.59;;;8.88;100.00
16120;BME280;12670;53.502;10.252;2023-03-20T07:01:26;101309.06;;;8.90;100.00
16120;BME280;12670;53.502;10.252;2023-03-20T07:04:29;101315.66;;;9.07;100.00
16120;BME280;12670;53.502;10.252;2023-03-20T07:07:32;101309.09;;;9.22;100.00
16120;BME280;12670;53.502;10.252;2023-03-20T07:10:35;101312.72;;;8.86;100.00
16120;BME280;12670;53.502;10.252;2023-03-20T07:13:39;101313.81;;;9.11;100.00
16120;BME280;12670;53.502;10.252;2023-03-20T07:16:43;101317.28;;;9.13;100.00
16120;BME280;12670;53.502;10.252;2023-03-20T07:19:46;101326.47;;;9.32;100.00
16120;BME280;12670;53.502;10.252;2023-03-20T07:22:48;101322.41;;;8.85;100.00
16120;BME280;12670;53.502;10.252;2023-03-20T07:25:51;101328.59;;;8.86;100.00
16120;BME280;12670;53.502;10.252;2023-03-20T07:28:54;101328.38;;;8.93;100.00
16120;BME280;12670;53.502;10.252;2023-03-20T07:31:57;101323.53;;;9.11;100.00
16120;BME280;12670;53.502;10.252;2023-03-20T07:35:01;101321.16;;;9.00;100.00
16120;BME280;12670;53.502;10.252;2023-03-20T07:38:05;101324.63;;;9.02;100.00
16120;BME280;12670;53.502;10.252;2023-03-20T07:41:07;101325.91;;;9.21;100.00
16120;BME280;12670;53.502;10.252;2023-03-20T07:44:10;101335.28;;;9.33;100.00
16120;BME280;12670;53.502;10.252;2023-03-20T07:47:16;101330.59;;;9.43;100.00
16120;BME280;12670;53.502;10.252;2023-03-20T07:50:18;101334.44;;;9.32;100.00
16120;BME280;12670;53.502;10.252;2023-03-20T07:53:21;101337.47;;;9.50;100.00
16120;BME280;12670;53.502;10.252;2023-03-20T07:56:24;101339.22;;;9.51;100.00
16120;BME280;12670;53.502;10.252;2023-03-20T07:59:26;101330.00;;;9.33;100.00
16120;BME280;12670;53.502;10.252;2023-03-20T08:02:30;101331.78;;;9.31;100.00
16120;BME280;12670;53.502;10.252;2023-03-20T08:05:34;101332.75;;;9.28;100.00
16120;BME280;12670;53.502;10.252;2023-03-20T08:08:38;101332.50;;;9.38;100.00
16120;BME280;12670;53.502;10.252;2023-03-20T08:11:40;101332.94;;;9.53;100.00
16120;BME280;12670;53.502;10.252;2023-03-20T08:14:43;101334.56;;;9.59;100.00
16120;BME280;12670;53.502;10.252;2023-03-20T08:17:47;101328.31;;;9.61;100.00
16120;BME280;12670;53.502;10.252;2023-03-20T08:20:49;101333.81;;;9.54;100.00
16120;BME280;12670;53.502;10.252;2023-03-20T08:23:52;101331.72;;;9.65;100.00
16120;BME280;12670;53.502;10.252;2023-03-20T08:26:55;101338.69;;;9.37;100.00
16120;BME280;12670;53.502;10.252;2023-03-20T08:29:57;101345.25;;;9.23;100.00
16120;BME280;12670;53.502;10.252;2023-03-20T08:33:01;101351.25;;;9.30;100.00
16120;BME280;12670;53.502;10.252;2023-03-20T08:36:05;101362.38;;;9.43;100.00
16120;BME280;12670;53.502;10.252;2023-03-20T08:39:08;101367.13;;;9.30;100.00
16120;BME280;12670;53.502;10.252;2023-03-20T08:42:11;101371.34;;;9.39;100.00
16120;BME280;12670;53.502;10.252;2023-03-20T08:45:13;101361.28;;;9.17;100.00
16120;BME280;12670;53.502;10.252;2023-03-20T08:48:18;101360.09;;;9.29;100.00
16120;BME280;12670;53.502;10.252;2023-03-20T08:51:21;101365.97;;;9.40;100.00
16120;BME280;12670;53.502;10.252;2023-03-20T08:54:24;101362.97;;;9.21;100.00
16120;BME280;12670;53.502;10.252;2023-03-20T08:57:26;101357.84;;;9.15;100.00
16120;BME280;12670;53.502;10.252;2023-03-20T09:00:29;101369.41;;;9.44;100.00
16120;BME280;12670;53.502;10.252;2023-03-20T09:03:33;101360.56;;;9.45;100.00
16120;BME280;12670;53.502;10.252;2023-03-20T09:06:36;101362.63;;;9.33;100.00
16120;BME280;12670;53.502;10.252;2023-03-20T09:09:40;101368.81;;;9.34;100.00
16120;BME280;12670;53.502;10.252;2023-03-20T09:12:43;101368.25;;;9.21;100.00
16120;BME280;12670;53.502;10.252;2023-03-20T09:15:45;101365.44;;;9.27;100.00
16120;BME280;12670;53.502;10.252;2023-03-20T09:18:49;101360.81;;;9.35;100.00
16120;BME280;12670;53.502;10.252;2023-03-20T09:21:52;101370.00;;;9.22;100.00
16120;BME280;12670;53.502;10.252;2023-03-20T09:24:55;101362.22;;;9.16;100.00
16120;BME280;12670;53.502;10.252;2023-03-20T09:27:57;101363.28;;;9.09;100.00
16120;BME280;12670;53.502;10.252;2023-03-20T09:31:00;101362.09;;;9.21;100.00
16120;BME280;12670;53.502;10.252;2023-03-20T09:34:04;101356.88;;;9.18;100.00
16120;BME280;12670;53.502;10.252;2023-03-20T09:37:07;101366.50;;;9.20;100.00
16120;BME280;12670;53.502;10.252;2023-03-20T09:40:18;101366.63;;;9.48;100.00
16120;BME280;12670;53.502;10.252;2023-03-20T09:43:31;101365.25;;;9.66;100.00
16120;BME280;12670;53.502;10.252;2023-03-20T09:46:59;101361.94;;;9.89;100.00
16120;BME280;12670;53.502;10.252;2023-03-20T09:50:30;101360.06;;;9.63;100.00
16120;BME280;12670;53.502;10.252;2023-03-20T09:53:38;101366.63;;;9.81;100.00
16120;BME280;12670;53.502;10.252;2023-03-20T09:56:42;101361.09;;;9.88;100.00
16120;BME280;12670;53.502;10.252;2023-03-20T09:59:45;101363.06;;;9.51;100.00
16120;BME280;12670;53.502;10.252;2023-03-20T10:02:51;101369.50;;;9.41;100.00
16120;BME280;12670;53.502;10.252;2023-03-20T10:05:58;101375.41;;;9.18;100.00
16120;BME280;12670;53.502;10.252;2023-03-20T10:09:03;101382.19;;;9.28;100.00
16120;BME280;12670;53.502;10.252;2023-03-20T10:12:27;101382.63;;;9.45;100.00
16120;BME280;12670;53.502;10.252;2023-03-20T10:15:42;101384.06;;;9.57;100.00
16120;BME280;12670;53.502;10.252;2023-03-20T10:18:52;101377.69;;;9.64;100.00
16120;BME280;12670;53.502;10.252;2023-03-20T10:22:05;101375.81;;;9.35;100.00
16120;BME280;12670;53.502;10.252;2023-03-20T10:25:22;101379.84;;;9.50;100.00
16120;BME280;12670;53.502;10.252;2023-03-20T10:28:30;101379.75;;;9.53;100.00
16120;BME280;12670;53.502;10.252;2023-03-20T10:31:42;101378.91;;;9.52;100.00
16120;BME280;12670;53.502;10.252;2023-03-20T10:34:53;101370.47;;;9.69;100.00
16120;BME280;12670;53.502;10.252;2023-03-20T10:38:11;101366.91;;;9.70;100.00
16120;BME280;12670;53.502;10.252;2023-03-20T10:41:19;101365.25;;;9.66;100.00
16120;BME280;12670;53.502;10.252;2023-03-20T10:44:28;101356.56;;;9.61;100.00
16120;BME280;12670;53.502;10.252;2023-03-20T10:47:35;101350.56;;;9.56;100.00
16120;BME280;12670;53.502;10.252;2023-03-20T10:50:44;101345.97;;;9.61;100.00
16120;BME280;12670;53.502;10.252;2023-03-20T10:53:52;101345.78;;;9.36;100.00
16120;BME280;12670;53.502;10.252;2023-03-20T10:56:58;101345.94;;;9.63;100.00
16120;BME280;12670;53.502;10.252;2023-03-20T11:00:02;101340.81;;;9.56;100.00
16120;BME280;12670;53.502;10.252;2023-03-20T11:03:19;101339.72;;;9.64;100.00
16120;BME280;12670;53.502;10.252;2023-03-20T11:06:26;101346.22;;;9.83;100.00
16120;BME280;12670;53.502;10.252;2023-03-20T11:09:31;101346.06;;;9.58;100.00
16120;BME280;12670;53.502;10.252;2023-03-20T11:12:35;101332.28;;;9.76;100.00
16120;BME280;12670;53.502;10.252;2023-03-20T11:15:38;101334.31;;;9.98;99.48
16120;BME280;12670;53.502;10.252;2023-03-20T11:18:41;101330.94;;;9.93;100.00
16120;BME280;12670;53.502;10.252;2023-03-20T11:21:46;101332.22;;;10.09;97.82
16120;BME280;12670;53.502;10.252;2023-03-20T11:24:53;101330.38;;;10.11;98.75
16120;BME280;12670;53.502;10.252;2023-03-20T11:28:20;101330.28;;;10.14;96.94
16120;BME280;12670;53.502;10.252;2023-03-20T11:31:31;101327.72;;;10.11;97.03
16120;BME280;12670;53.502;10.252;2023-03-20T11:34:37;101318.03;;;10.10;96.48
16120;BME280;12670;53.502;10.252;2023-03-20T11:37:43;101323.41;;;10.08;97.63
16120;BME280;12670;53.502;10.252;2023-03-20T11:40:49;101317.50;;;9.99;95.25
16120;BME280;12670;53.502;10.252;2023-03-20T11:43:54;101314.19;;;9.91;96.44
16120;BME280;12670;53.502;10.252;2023-03-20T11:46:59;101313.69;;;9.78;94.62
16120;BME280;12670;53.502;10.252;2023-03-20T11:50:05;101317.13;;;9.81;94.75
16120;BME280;12670;53.502;10.252;2023-03-20T11:53:20;101313.50;;;9.85;96.10
16120;BME280;12670;53.502;10.252;2023-03-20T11:56:26;101315.28;;;9.83;96.50
16120;BME280;12670;53.502;10.252;2023-03-20T11:59:30;101302.09;;;9.82;96.12
16120;BME280;12670;53.502;10.252;2023-03-20T12:02:34;101299.69;;;10.04;94.72
16120;BME280;12670;53.502;10.252;2023-03-20T12:05:38;101299.94;;;9.95;92.37
16120;BME280;12670;53.502;10.252;2023-03-20T12:08:49;101305.38;;;9.90;91.48
16120;BME280;12670;53.502;10.252;2023-03-20T12:11:56;101307.91;;;9.95;92.94
16120;BME280;12670;53.502;10.252;2023-03-20T12:15:07;101302.41;;;10.01;91.73
16120;BME280;12670;53.502;10.252;2023-03-20T12:18:14;101310.09;;;10.10;92.62
16120;BME280;12670;53.502;10.252;2023-03-20T12:21:26;101308.25;;;10.12;91.74
16120;BME280;12670;53.502;10.252;2023-03-20T12:24:36;101306.53;;;10.11;91.13
16120;BME280;12670;53.502;10.252;2023-03-20T12:27:46;101311.78;;;10.12;92.71
16120;BME280;12670;53.502;10.252;2023-03-20T12:31:04;101307.81;;;9.98;90.82
16120;BME280;12670;53.502;10.252;2023-03-20T12:34:11;101309.72;;;9.93;91.83
16120;BME280;12670;53.502;10.252;2023-03-20T12:37:16;101304.25;;;9.99;91.34
16120;BME280;12670;53.502;10.252;2023-03-20T12:40:23;101305.72;;;10.09;90.26
16120;BME280;12670;53.502;10.252;2023-03-20T12:43:38;101313.16;;;10.26;89.46
16120;BME280;12670;53.502;10.252;2023-03-20T12:46:51;101304.25;;;10.28;89.03
16120;BME280;12670;53.502;10.252;2023-03-20T12:49:59;101303.53;;;10.23;88.46
16120;BME280;12670;53.502;10.252;2023-03-20T12:53:14;101302.94;;;10.41;89.55
16120;BME280;12670;53.502;10.252;2023-03-20T12:56:35;101303.84;;;10.67;88.91
16120;BME280;12670;53.502;10.252;2023-03-20T13:00:02;101297.84;;;10.88;87.78
16120;BME280;12670;53.502;10.252;2023-03-20T13:03:23;101288.72;;;10.95;87.65
16120;BME280;12670;53.502;10.252;2023-03-20T13:06:36;101281.03;;;11.13;86.47
16120;BME280;12670;53.502;10.252;2023-03-20T13:10:09;101280.03;;;11.17;85.31
16120;BME280;12670;53.502;10.252;2023-03-20T13:13:21;101276.38;;;11.44;84.22
16120;BME280;12670;53.502;10.252;2023-03-20T13:16:37;101273.88;;;11.40;83.04
16120;BME280;12670;53.502;10.252;2023-03-20T13:19:50;101274.53;;;11.46;81.82
16120;BME280;12670;53.502;10.252;2023-03-20T13:23:05;101265.53;;;11.51;81.01
16120;BME280;12670;53.502;10.252;2023-03-20T13:26:20;101257.88;;;11.65;81.49
16120;BME280;12670;53.502;10.252;2023-03-20T13:29:31;101265.13;;;11.38;79.50
16120;BME280;12670;53.502;10.252;2023-03-20T13:32:45;101257.41;;;11.30;81.08
16120;BME280;12670;53.502;10.252;2023-03-20T13:35:57;101245.19;;;11.50;80.66
16120;BME280;12670;53.502;10.252;2023-03-20T13:39:05;101249.44;;;11.30;79.70
16120;BME280;12670;53.502;10.252;2023-03-20T13:42:14;101257.16;;;11.13;80.42
16120;BME280;12670;53.502;10.252;2023-03-20T13:45:25;101243.53;;;11.22;80.57
16120;BME280;12670;53.502;10.252;2023-03-20T13:48:35;101238.97;;;11.26;80.83
16120;BME280;12670;53.502;10.252;2023-03-20T13:51:42;101247.94;;;10.98;79.95
16120;BME280;12670;53.502;10.252;2023-03-20T13:54:55;101246.47;;;10.89;80.42
16120;BME280;12670;53.502;10.252;2023-03-20T13:58:13;101234.69;;;10.73;80.07
16120;BME280;12670;53.502;10.252;2023-03-20T14:01:20;101238.63;;;10.86;82.33
16120;BME280;12670;53.502;10.252;2023-03-20T14:04:27;101242.38;;;10.81;81.78
16120;BME280;12670;53.502;10.252;2023-03-20T14:07:34;101247.94;;;10.73;81.38
16120;BME280;12670;53.502;10.252;2023-03-20T14:10:38;101237.03;;;10.56;81.91
16120;BME280;12670;53.502;10.252;2023-03-20T14:13:43;101237.47;;;10.68;82.66
16120;BME280;12670;53.502;10.252;2023-03-20T14:16:47;101243.53;;;10.72;81.72
16120;BME280;12670;53.502;10.252;2023-03-20T14:19:52;101243.00;;;10.62;82.03
16120;BME280;12670;53.502;10.252;2023-03-20T14:22:55;101240.13;;;10.68;81.76
16120;BME280;12670;53.502;10.252;2023-03-20T14:25:59;101237.63;;;10.64;81.57
16120;BME280;12670;53.502;10.252;2023-03-20T14:29:20;101234.63;;;10.48;83.42
16120;BME280;12670;53.502;10.252;2023-03-20T14:32:32;101235.56;;;10.72;83.49
16120;BME280;12670;53.502;10.252;2023-03-20T14:35:42;101229.38;;;10.73;83.61
16120;BME280;12670;53.502;10.252;2023-03-20T14:38:57;101239.00;;;10.76;84.00
16120;BME280;12670;53.502;10.252;2023-03-20T14:42:20;101234.13;;;10.88;83.35
16120;BME280;12670;53.502;10.252;2023-03-20T14:45:30;101233.69;;;10.76;84.65
16120;BME280;12670;53.502;10.252;2023-03-20T14:48:41;101236.00;;;10.60;82.93
16120;BME280;12670;53.502;10.252;2023-03-20T14:51:50;101231.47;;;10.63;83.17
16120;BME280;12670;53.502;10.252;2023-03-20T14:54:55;101230.84;;;10.55;83.29
16120;BME280;12670;53.502;10.252;2023-03-20T14:58:01;101232.69;;;10.53;83.98
16120;BME280;12670;53.502;10.252;2023-03-20T15:01:06;101230.03;;;10.53;83.05
16120;BME280;12670;53.502;10.252;2023-03-20T15:04:20;101234.63;;;10.75;83.20
16120;BME280;12670;53.502;10.252;2023-03-20T15:07:27;101233.25;;;10.63;81.89
16120;BME280;12670;53.502;10.252;2023-03-20T15:10:33;101226.00;;;10.68;81.92
16120;BME280;12670;53.502;10.252;2023-03-20T15:13:38;101234.63;;;10.48;82.85
16120;BME280;12670;53.502;10.252;2023-03-20T15:16:44;101234.69;;;10.47;82.75
16120;BME280;12670;53.502;10.252;2023-03-20T15:19:47;101235.69;;;10.43;82.85
16120;BME280;12670;53.502;10.252;2023-03-20T15:22:53;101235.22;;;10.30;84.82
16120;BME280;12670;53.502;10.252;2023-03-20T15:25:59;101237.25;;;10.50;83.92
16120;BME280;12670;53.502;10.252;2023-03-20T15:29:03;101239.38;;;10.38;84.51
16120;BME280;12670;53.502;10.252;2023-03-20T15:32:08;101234.28;;;10.32;85.09
16120;BME280;12670;53.502;10.252;2023-03-20T15:35:17;101242.13;;;10.35;86.60
16120;BME280;12670;53.502;10.252;2023-03-20T15:38:32;101236.94;;;10.32;86.28
16120;BME280;12670;53.502;10.252;2023-03-20T15:41:36;101232.31;;;10.37;86.19
16120;BME280;12670;53.502;10.252;2023-03-20T15:44:41;101230.09;;;10.52;86.51
16120;BME280;12670;53.502;10.252;2023-03-20T15:47:44;101230.16;;;10.50;85.84
16120;BME280;12670;53.502;10.252;2023-03-20T15:50:49;101225.06;;;10.44;86.47
16120;BME280;12670;53.502;10.252;2023-03-20T15:53:56;101233.34;;;10.60;85.82
16120;BME280;12670;53.502;10.252;2023-03-20T15:56:58;101231.72;;;10.56;85.92
16120;BME280;12670;53.502;10.252;2023-03-20T16:00:04;101236.31;;;10.24;87.43
16120;BME280;12670;53.502;10.252;2023-03-20T16:03:12;101232.53;;;10.31;87.68
16120;BME280;12670;53.502;10.252;2023-03-20T16:06:18;101230.25;;;10.19;88.30
16120;BME280;12670;53.502;10.252;2023-03-20T16:09:23;101238.38;;;10.14;87.34